Time;durP1;ratioP1;P1;durP2;ratioP2;P2;SDS_P1;SDS_P2;PMS_P1;PMS_P2;Temp;Humidity;BMP_temperature;BMP_pressure;BME280_temperature;BME280_humidity;BME280_pressure;Samples;Min_cycle;Max_cycle;Signal;HPM_P1;HPM_P2
2020/12/02 06:02:20;;;;;;;60.87;23.50;;;-2.00;97.30;;;;;;5163145;23;20503;-76
2020/12/02 06:04:54;;;;;;;59.97;22.80;;;-2.00;97.30;;;;;;4934516;29;20424;-78
2020/12/02 06:07:21;;;;;;;68.13;24.27;;;-2.10;97.30;;;;;;4941276;29;20525;-76
2020/12/02 06:09:52;;;;;;;60.67;25.17;;;-2.10;97.30;;;;;;4945119;29;20426;-78
2020/12/02 06:12:39;;;;;;;75.93;27.10;;;-2.10;97.30;;;;;;4945139;29;20464;-75
2020/12/02 06:15:23;;;;;;;75.90;24.80;;;-2.10;97.30;;;;;;4944482;29;20921;-78
2020/12/02 06:18:11;;;;;;;70.30;26.90;;;-2.20;97.30;;;;;;4945038;29;20474;-78
2020/12/02 06:20:42;;;;;;;83.17;28.93;;;-2.20;97.30;;;;;;4940028;29;20454;-78
2020/12/02 06:23:12;;;;;;;72.03;28.20;;;-2.20;97.30;;;;;;4941223;29;20411;-76
2020/12/02 06:25:52;;;;;;;70.10;27.70;;;-2.20;97.30;;;;;;4939413;29;20452;-75
2020/12/02 06:28:30;;;;;;;73.10;24.97;;;-2.20;97.30;;;;;;4940066;29;20800;-78
2020/12/02 06:31:13;;;;;;;63.23;24.00;;;-2.20;97.30;;;;;;4943331;29;20530;-75
2020/12/02 06:33:44;;;;;;;66.90;24.37;;;-2.20;97.30;;;;;;4943437;29;20412;-77
2020/12/02 06:36:12;;;;;;;66.43;24.43;;;-2.20;97.30;;;;;;4940137;29;20423;-77
2020/12/02 06:38:38;;;;;;;59.43;24.17;;;-2.20;97.30;;;;;;4937870;29;20466;-78
2020/12/02 06:41:28;;;;;;;63.70;24.07;;;-2.20;97.30;;;;;;4938354;29;20435;-77
2020/12/02 06:44:09;;;;;;;56.17;24.10;;;-2.20;97.30;;;;;;4940173;29;20691;-76
2020/12/02 06:46:47;;;;;;;58.93;23.60;;;-2.20;97.30;;;;;;4940368;29;20423;-75
2020/12/02 06:49:15;;;;;;;62.70;24.10;;;-2.20;97.30;;;;;;4940062;29;20424;-75
2020/12/02 06:51:56;;;;;;;62.33;22.90;;;-2.20;97.30;;;;;;4937438;29;20790;-75
2020/12/02 06:54:22;;;;;;;63.20;23.43;;;-2.20;97.30;;;;;;4939689;29;20422;-76
2020/12/02 06:56:52;;;;;;;66.67;25.70;;;-2.20;97.30;;;;;;4941162;29;20424;-76
2020/12/02 06:59:18;;;;;;;58.43;23.50;;;-2.20;97.30;;;;;;4937708;29;20925;-76
2020/12/02 07:01:44;;;;;;;65.63;23.23;;;-2.20;97.30;;;;;;4936954;29;20456;-76
2020/12/02 07:04:19;;;;;;;55.53;22.10;;;-2.20;97.30;;;;;;4936869;29;20207;-76
2020/12/02 07:06:57;;;;;;;62.53;22.90;;;-2.20;97.30;;;;;;4937670;29;20415;-75
2020/12/02 07:09:22;;;;;;;60.13;23.17;;;-2.20;97.30;;;;;;4941115;29;20427;-76
2020/12/02 07:12:02;;;;;;;68.30;23.60;;;-2.20;97.30;;;;;;4939564;29;21035;-76
2020/12/02 07:14:38;;;;;;;66.10;24.80;;;-2.30;97.30;;;;;;4942332;29;20226;-75
2020/12/02 07:17:09;;;;;;;56.67;22.70;;;-2.30;97.30;;;;;;4943909;29;20507;-75
2020/12/02 07:19:37;;;;;;;68.30;24.77;;;-2.30;97.30;;;;;;4943538;29;20965;-75
2020/12/02 07:22:13;;;;;;;61.50;23.90;;;-2.30;97.30;;;;;;4942354;29;20450;-75
2020/12/02 07:24:48;;;;;;;61.57;23.37;;;-2.30;97.30;;;;;;4942079;29;20506;-76
2020/12/02 07:27:15;;;;;;;68.63;24.70;;;-2.30;97.30;;;;;;4940499;29;20434;-75
2020/12/02 07:29:41;;;;;;;67.00;26.07;;;-2.30;97.30;;;;;;4940614;29;20466;-75
2020/12/02 07:32:20;;;;;;;70.43;27.73;;;-2.20;97.30;;;;;;4945211;29;20957;-76
2020/12/02 07:34:47;;;;;;;69.33;25.00;;;-2.20;97.30;;;;;;4947166;29;20438;-76
2020/12/02 07:37:22;;;;;;;63.70;25.80;;;-2.20;97.30;;;;;;4947321;29;20452;-76
2020/12/02 07:39:51;;;;;;;71.30;25.27;;;-2.20;97.30;;;;;;4945190;29;20415;-76
2020/12/02 07:42:22;;;;;;;60.27;23.00;;;-2.20;97.30;;;;;;4945365;29;20432;-75
2020/12/02 07:44:59;;;;;;;68.40;24.33;;;-2.20;97.30;;;;;;4946547;29;20501;-75
2020/12/02 07:47:25;;;;;;;61.57;22.73;;;-2.10;97.30;;;;;;4944843;29;20416;-74
2020/12/02 07:50:01;;;;;;;64.03;24.80;;;-2.10;97.30;;;;;;4945881;29;20495;-74
2020/12/02 07:52:33;;;;;;;63.37;24.43;;;-2.00;97.30;;;;;;4945377;29;20196;-74
2020/12/02 07:55:00;;;;;;;62.43;23.50;;;-1.90;97.30;;;;;;4945273;29;20440;-74
2020/12/02 07:57:27;;;;;;;69.77;26.57;;;-1.90;97.30;;;;;;4944113;29;20470;-79
2020/12/02 08:00:30;;;;;;;72.80;26.67;;;-1.80;97.30;;;;;;4937422;29;20908;-84
2020/12/02 08:02:56;;;;;;;62.63;24.77;;;-1.70;97.30;;;;;;4936884;29;20442;-81
2020/12/02 08:05:32;;;;;;;69.47;24.30;;;-1.70;97.30;;;;;;4936542;29;20423;-84
2020/12/02 08:07:58;;;;;;;65.30;24.87;;;-1.60;97.30;;;;;;4937236;29;20657;-81
2020/12/02 08:10:26;;;;;;;73.77;26.97;;;-1.60;97.30;;;;;;4936884;29;20420;-83
2020/12/02 08:12:52;;;;;;;62.77;25.70;;;-1.50;97.30;;;;;;4936765;29;20416;-82
2020/12/02 08:15:17;;;;;;;72.43;28.43;;;-1.40;97.30;;;;;;4936198;29;20428;-81
2020/12/02 08:18:00;;;;;;;73.47;27.53;;;-1.40;97.30;;;;;;4936396;29;20826;-84
2020/12/02 08:20:33;;;;;;;73.03;27.00;;;-1.30;97.30;;;;;;4936108;29;20176;-83
2020/12/02 08:23:06;;;;;;;58.00;23.80;;;-1.20;97.30;;;;;;4935969;29;20427;-85
2020/12/02 08:25:34;;;;;;;65.13;25.23;;;-1.20;97.30;;;;;;4936166;29;20420;-83
2020/12/02 08:28:06;;;;;;;65.27;25.50;;;-1.10;97.30;;;;;;4935524;29;20448;-84
2020/12/02 08:30:32;;;;;;;72.10;24.97;;;-1.00;97.30;;;;;;4935745;29;20416;-82
2020/12/02 08:33:06;;;;;;;63.27;23.83;;;-0.90;97.30;;;;;;4935972;29;20447;-83
2020/12/02 08:35:46;;;;;;;73.80;25.37;;;-0.90;97.30;;;;;;4935524;29;20664;-84
2020/12/02 08:38:33;;;;;;;61.13;24.60;;;-0.80;97.30;;;;;;4936532;29;20874;-83
2020/12/02 08:41:01;;;;;;;56.70;24.07;;;-0.70;97.30;;;;;;4936827;29;20431;-83
2020/12/02 08:43:34;;;;;;;56.93;24.07;;;-0.60;97.30;;;;;;4936111;29;20441;-84
2020/12/02 08:46:07;;;;;;;58.83;24.27;;;-0.60;97.30;;;;;;4936121;29;20935;-84
2020/12/02 08:48:37;;;;;;;54.83;23.17;;;-0.50;97.30;;;;;;4936239;29;20423;-83
2020/12/02 08:51:09;;;;;;;58.23;24.73;;;-0.40;97.30;;;;;;4935494;29;20444;-82
2020/12/02 08:53:35;;;;;;;56.97;24.50;;;-0.40;97.30;;;;;;4935181;29;20483;-82
2020/12/02 08:56:01;;;;;;;58.20;23.40;;;-0.30;97.30;;;;;;4935905;29;20431;-84
2020/12/02 08:58:27;;;;;;;62.80;23.90;;;-0.30;97.30;;;;;;4935745;29;20216;-83
2020/12/02 09:00:53;;;;;;;55.67;23.43;;;-0.20;97.30;;;;;;4935355;29;20208;-84
2020/12/02 09:03:22;;;;;;;67.33;25.47;;;-0.10;97.30;;;;;;4935339;29;20427;-84
2020/12/02 09:05:48;;;;;;;55.20;21.97;;;-0.10;97.30;;;;;;4934966;29;20791;-84
2020/12/02 09:08:13;;;;;;;57.67;23.27;;;0.00;97.30;;;;;;4934583;29;20424;-84
2020/12/02 09:10:39;;;;;;;57.83;23.77;;;0.00;97.30;;;;;;4934931;29;20231;-85
2020/12/02 09:13:05;;;;;;;54.83;23.00;;;0.10;97.30;;;;;;4934614;29;20555;-84
2020/12/02 09:15:31;;;;;;;65.07;24.90;;;0.20;97.30;;;;;;4935140;29;20188;-83
2020/12/02 09:17:57;;;;;;;57.70;23.10;;;0.30;97.30;;;;;;4934806;29;20203;-85
2020/12/02 09:20:24;;;;;;;59.83;23.63;;;0.30;97.30;;;;;;4934771;29;20431;-84
2020/12/02 09:22:51;;;;;;;59.03;22.70;;;0.40;97.30;;;;;;4934433;29;20468;-84
2020/12/02 09:25:17;;;;;;;60.63;24.27;;;0.40;97.30;;;;;;4934533;29;20423;-83
2020/12/02 09:27:43;;;;;;;53.97;22.20;;;0.50;97.30;;;;;;4934706;29;20939;-84
2020/12/02 09:30:09;;;;;;;47.93;21.23;;;0.60;97.30;;;;;;4934722;29;20432;-84
2020/12/02 09:32:34;;;;;;;51.40;22.53;;;0.70;97.30;;;;;;4934690;29;20700;-84
2020/12/02 09:35:00;;;;;;;54.70;22.80;;;0.80;97.30;;;;;;4934391;29;20427;-85
2020/12/02 09:37:26;;;;;;;57.30;22.43;;;0.80;97.30;;;;;;4934608;29;20234;-84
2020/12/02 09:39:55;;;;;;;56.43;23.43;;;0.90;97.30;;;;;;4954274;28;20579;-84
2020/12/02 09:42:40;;;;;;;54.00;22.23;;;1.00;97.30;;;;;;4957708;29;20446;-83
2020/12/02 09:45:28;;;;;;;51.70;21.73;;;1.10;97.30;;;;;;4957470;29;20421;-84
2020/12/02 09:47:55;;;;;;;51.63;21.57;;;1.10;97.30;;;;;;4952100;29;20461;-84
2020/12/02 09:50:20;;;;;;;57.80;22.33;;;1.30;97.30;;;;;;4957401;28;20430;-83
2020/12/02 09:52:49;;;;;;;58.47;22.60;;;1.40;97.30;;;;;;4957707;29;20423;-83
2020/12/02 09:55:22;;;;;;;55.30;22.10;;;1.50;97.30;;;;;;4957447;29;20180;-83
2020/12/02 09:57:48;;;;;;;53.40;20.27;;;1.50;97.30;;;;;;4958059;29;20469;-83
2020/12/02 10:00:16;;;;;;;51.43;22.70;;;1.60;97.30;;;;;;4957582;28;20466;-83
2020/12/02 10:03:17;;;;;;;55.60;21.43;;;1.70;97.30;;;;;;4957944;29;20461;-82
2020/12/02 10:06:22;;;;;;;60.07;22.23;;;1.80;97.30;;;;;;4957059;29;20418;-81
2020/12/02 10:08:59;;;;;;;58.03;22.30;;;1.90;97.30;;;;;;4958483;29;20447;-83
2020/12/02 10:11:30;;;;;;;62.07;22.30;;;2.00;97.30;;;;;;4957100;28;20525;-82
2020/12/02 10:14:09;;;;;;;51.30;21.40;;;2.00;97.30;;;;;;4957366;29;20429;-80
2020/12/02 10:16:57;;;;;;;54.23;21.73;;;2.10;97.30;;;;;;4958042;29;20928;-80
2020/12/02 10:19:47;;;;;;;49.33;21.73;;;2.20;97.30;;;;;;4957102;29;20438;-79
2020/12/02 10:22:43;;;;;;;50.23;22.60;;;2.30;97.30;;;;;;4956690;28;21064;-80
2020/12/02 10:25:47;;;;;;;54.57;21.20;;;2.30;97.30;;;;;;4956480;29;20407;-79
2020/12/02 10:28:32;;;;;;;53.40;22.43;;;2.50;97.30;;;;;;4945620;29;20427;-80
2020/12/02 10:31:14;;;;;;;48.77;20.83;;;2.50;97.30;;;;;;4956543;28;20518;-79
2020/12/02 10:34:16;;;;;;;52.37;21.90;;;2.60;97.30;;;;;;4956787;29;20430;-80
2020/12/02 10:36:48;;;;;;;46.00;20.50;;;2.70;97.30;;;;;;4933426;29;20434;-79
2020/12/02 10:39:27;;;;;;;48.90;21.07;;;2.70;97.30;;;;;;4937534;29;20482;-79
2020/12/02 10:42:30;;;;;;;51.90;22.20;;;2.80;97.30;;;;;;4937036;29;20446;-80
2020/12/02 10:45:16;;;;;;;51.47;21.33;;;3.00;97.30;;;;;;4931882;29;20428;-80
2020/12/02 10:48:07;;;;;;;48.10;20.70;;;3.00;97.30;;;;;;4939346;29;20446;-80
2020/12/02 10:50:35;;;;;;;50.63;21.97;;;3.20;97.30;;;;;;4939164;29;20416;-80
2020/12/02 10:53:04;;;;;;;50.70;22.73;;;3.40;97.30;;;;;;4938843;29;20412;-81
2020/12/02 10:55:33;;;;;;;48.23;22.17;;;3.60;97.30;;;;;;4939541;29;20412;-81
2020/12/02 10:58:18;;;;;;;52.13;22.67;;;3.70;97.30;;;;;;4938961;29;20467;-80
2020/12/02 11:00:55;;;;;;;48.87;21.03;;;3.80;97.30;;;;;;4939166;29;21047;-81
2020/12/02 11:03:26;;;;;;;52.60;23.20;;;3.80;96.90;;;;;;4939242;29;20455;-81
2020/12/02 11:06:13;;;;;;;52.20;22.07;;;3.90;97.20;;;;;;4939065;29;20452;-80
2020/12/02 11:08:58;;;;;;;47.57;21.67;;;4.00;96.80;;;;;;4939905;29;20427;-80
2020/12/02 11:11:42;;;;;;;47.90;20.83;;;4.10;96.70;;;;;;4939538;29;20440;-80
2020/12/02 11:14:31;;;;;;;47.67;22.83;;;4.20;96.30;;;;;;4938393;29;20420;-81
2020/12/02 11:17:19;;;;;;;44.27;21.87;;;4.10;95.30;;;;;;4939768;29;20548;-80
2020/12/02 11:19:57;;;;;;;44.70;21.57;;;3.90;94.90;;;;;;4938729;29;20470;-80
2020/12/02 11:22:44;;;;;;;47.80;20.83;;;3.90;95.10;;;;;;4938056;29;20431;-80
2020/12/02 11:25:34;;;;;;;46.27;20.93;;;3.90;95.00;;;;;;4937989;29;20956;-80
2020/12/02 11:28:00;;;;;;;42.63;20.27;;;4.00;94.90;;;;;;4939498;29;20411;-80
2020/12/02 11:30:37;;;;;;;46.47;20.23;;;4.10;94.00;;;;;;4939307;29;20808;-80
2020/12/02 11:33:58;;;;;;;46.37;21.20;;;4.00;94.00;;;;;;4938628;29;20266;-81
2020/12/02 11:36:44;;;;;;;41.27;19.17;;;4.10;94.30;;;;;;4902774;29;20499;-81
2020/12/02 11:39:31;;;;;;;45.90;19.60;;;4.30;94.20;;;;;;4935010;29;20471;-80
2020/12/02 11:42:23;;;;;;;39.97;18.53;;;4.60;94.00;;;;;;4937810;29;20964;-82
2020/12/02 11:44:57;;;;;;;48.33;20.30;;;4.70;92.80;;;;;;4923999;29;20424;-81
2020/12/02 11:47:33;;;;;;;41.13;18.60;;;4.80;92.80;;;;;;4938690;29;20431;-81
2020/12/02 11:50:28;;;;;;;42.57;18.60;;;4.90;92.20;;;;;;4937424;29;20502;-81
2020/12/02 11:53:02;;;;;;;40.13;19.77;;;4.90;91.70;;;;;;4938263;29;20455;-81
2020/12/02 11:55:28;;;;;;;40.40;19.70;;;5.00;92.00;;;;;;4937916;29;20552;-81
2020/12/02 11:57:57;;;;;;;41.43;19.13;;;5.10;90.90;;;;;;4939529;29;20491;-81
2020/12/02 12:00:23;;;;;;;43.60;19.30;;;5.10;91.00;;;;;;4941708;29;20191;-81
2020/12/02 12:03:07;;;;;;;43.20;19.90;;;5.20;90.90;;;;;;4943498;29;20431;-81
2020/12/02 12:06:01;;;;;;;42.43;18.50;;;5.30;90.50;;;;;;4943797;29;20183;-81
2020/12/02 12:08:33;;;;;;;43.40;20.10;;;5.40;90.60;;;;;;4940467;29;20439;-80
2020/12/02 12:11:04;;;;;;;39.40;18.43;;;5.50;90.30;;;;;;4946369;29;20427;-80
2020/12/02 12:13:52;;;;;;;38.17;19.03;;;5.70;90.10;;;;;;4944608;29;20475;-82
2020/12/02 12:16:36;;;;;;;37.80;18.17;;;5.90;89.50;;;;;;4945618;29;20431;-81
2020/12/02 12:19:20;;;;;;;38.73;18.70;;;6.10;88.90;;;;;;4941818;29;20491;-81
2020/12/02 12:22:09;;;;;;;39.77;17.70;;;6.00;88.10;;;;;;4941585;29;20590;-81
2020/12/02 12:24:35;;;;;;;40.87;18.10;;;6.00;88.20;;;;;;4937332;29;20830;-81
2020/12/02 12:27:00;;;;;;;36.67;18.13;;;6.10;87.90;;;;;;4938275;29;20412;-81
2020/12/02 12:29:26;;;;;;;43.77;18.60;;;6.30;87.90;;;;;;4937148;29;20187;-81
2020/12/02 12:32:13;;;;;;;34.90;17.77;;;6.20;87.50;;;;;;4937901;29;20203;-81
2020/12/02 12:35:05;;;;;;;38.40;19.20;;;6.40;87.90;;;;;;4937544;29;20191;-81
2020/12/02 12:37:54;;;;;;;42.23;19.57;;;6.60;87.60;;;;;;4940082;29;20459;-82
2020/12/02 12:40:37;;;;;;;41.67;19.33;;;6.80;87.50;;;;;;4943275;29;20412;-82
2020/12/02 12:43:06;;;;;;;38.50;18.10;;;6.80;86.40;;;;;;4943582;29;20432;-82
2020/12/02 12:45:43;;;;;;;36.70;18.63;;;6.60;86.20;;;;;;4943508;29;20416;-82
2020/12/02 12:48:15;;;;;;;42.50;18.73;;;6.70;86.70;;;;;;4943658;29;20419;-82
2020/12/02 12:50:44;;;;;;;42.50;20.40;;;6.80;86.70;;;;;;4942831;29;20439;-82
2020/12/02 12:53:11;;;;;;;44.63;20.63;;;6.80;86.90;;;;;;4944623;29;20418;-83
2020/12/02 12:55:38;;;;;;;46.03;20.60;;;6.80;86.50;;;;;;4939943;29;20474;-83
2020/12/02 12:58:28;;;;;;;44.90;20.10;;;6.80;86.90;;;;;;4961410;28;20467;-83
2020/12/02 13:00:54;;;;;;;45.00;20.60;;;6.50;87.00;;;;;;4963578;28;20434;-82
2020/12/02 13:03:22;;;;;;;41.30;20.10;;;6.40;87.60;;;;;;4950526;29;20462;-84
2020/12/02 13:06:22;;;;;;;41.07;19.50;;;6.20;87.70;;;;;;4950033;29;20176;-82
2020/12/02 13:09:16;;;;;;;40.00;19.23;;;6.20;88.00;;;;;;4949114;29;20419;-82
2020/12/02 13:11:55;;;;;;;38.07;18.50;;;6.30;88.10;;;;;;4950501;29;20821;-83
2020/12/02 13:15:01;;;;;;;39.90;19.17;;;6.50;88.00;;;;;;4951150;28;20435;-82
2020/12/02 13:17:39;;;;;;;44.17;20.10;;;6.60;87.60;;;;;;4951099;29;20466;-82
2020/12/02 13:20:14;;;;;;;43.20;19.10;;;6.60;87.20;;;;;;4954101;29;20478;-82
2020/12/02 13:22:45;;;;;;;41.57;20.27;;;6.50;87.70;;;;;;4946742;29;20423;-82
2020/12/02 13:25:18;;;;;;;38.80;19.53;;;6.50;87.80;;;;;;4942285;29;20412;-83
2020/12/02 13:28:14;;;;;;;38.67;19.70;;;6.60;87.70;;;;;;4942352;29;20420;-83
2020/12/02 13:31:05;;;;;;;41.20;18.50;;;6.70;87.40;;;;;;4939317;29;20475;-83
2020/12/02 13:33:35;;;;;;;41.87;19.70;;;6.70;87.20;;;;;;4941480;29;20422;-83
2020/12/02 13:36:05;;;;;;;45.27;18.90;;;6.70;87.10;;;;;;4942046;29;20420;-83
2020/12/02 13:38:31;;;;;;;45.57;20.83;;;6.70;87.30;;;;;;4940085;29;20454;-83
2020/12/02 13:41:05;;;;;;;44.47;18.83;;;6.80;87.10;;;;;;4943958;29;20810;-82
2020/12/02 13:43:32;;;;;;;39.60;19.83;;;6.60;86.90;;;;;;4943025;29;20198;-83
2020/12/02 13:45:58;;;;;;;45.13;21.90;;;6.70;87.30;;;;;;4942988;29;20408;-82
2020/12/02 13:48:24;;;;;;;41.20;19.00;;;6.80;87.30;;;;;;4943284;29;20416;-83
2020/12/02 13:50:58;;;;;;;46.77;21.00;;;6.90;86.90;;;;;;4941482;29;20495;-82
2020/12/02 13:53:27;;;;;;;41.17;18.70;;;6.90;86.50;;;;;;4944077;29;20778;-83
2020/12/02 13:56:06;;;;;;;38.10;19.30;;;6.80;86.30;;;;;;4941683;29;20419;-83
2020/12/02 13:58:44;;;;;;;40.43;20.07;;;6.60;86.20;;;;;;4940359;29;20502;-83
2020/12/02 14:01:22;;;;;;;45.17;20.30;;;6.50;86.60;;;;;;4940218;29;20957;-83
2020/12/02 14:04:06;;;;;;;40.40;19.93;;;6.50;86.90;;;;;;4941484;29;20439;-83
2020/12/02 14:06:57;;;;;;;37.40;18.67;;;6.50;86.50;;;;;;4941308;29;20420;-83
2020/12/02 14:09:34;;;;;;;36.67;18.40;;;6.40;86.50;;;;;;4941443;29;20450;-83
2020/12/02 14:12:04;;;;;;;44.33;20.30;;;6.40;86.70;;;;;;4941734;29;20475;-82
2020/12/02 14:14:35;;;;;;;40.17;18.93;;;6.50;86.90;;;;;;4940740;29;20423;-82
2020/12/02 14:17:01;;;;;;;41.67;19.60;;;6.30;86.60;;;;;;4933223;29;20448;-84
2020/12/02 14:19:28;;;;;;;45.70;21.03;;;6.20;86.90;;;;;;4925379;29;20472;-83
2020/12/02 14:22:16;;;;;;;40.37;18.83;;;6.00;87.00;;;;;;4919398;29;20444;-84
2020/12/02 14:24:44;;;;;;;42.80;19.80;;;5.50;87.70;;;;;;4920420;29;20429;-84
2020/12/02 14:27:12;;;;;;;37.80;18.13;;;5.10;88.50;;;;;;4920274;29;20421;-83
2020/12/02 14:29:38;;;;;;;44.63;19.83;;;4.90;89.30;;;;;;4919921;29;20503;-83
2020/12/02 14:32:05;;;;;;;42.50;20.00;;;4.70;89.80;;;;;;4924424;29;20439;-78
2020/12/02 14:34:31;;;;;;;42.53;20.87;;;4.50;90.30;;;;;;4936218;29;20420;-78
2020/12/02 14:36:58;;;;;;;38.27;18.77;;;4.40;91.00;;;;;;4936045;29;20960;-77
2020/12/02 14:39:25;;;;;;;43.43;20.77;;;4.30;91.30;;;;;;4919768;29;20208;-79
2020/12/02 14:41:50;;;;;;;42.57;21.13;;;4.10;91.70;;;;;;4935998;29;20491;-84
2020/12/02 14:44:16;;;;;;;42.93;18.87;;;4.00;92.10;;;;;;4936017;29;20424;-80
2020/12/02 14:46:42;;;;;;;44.23;19.23;;;3.70;92.50;;;;;;4944741;29;20187;-80
2020/12/02 14:49:09;;;;;;;50.43;20.63;;;3.60;93.10;;;;;;4940809;29;20491;-74
2020/12/02 14:51:35;;;;;;;46.50;19.73;;;3.40;93.60;;;;;;4936539;29;20199;-80
2020/12/02 14:54:01;;;;;;;57.27;18.70;;;3.20;94.00;;;;;;4935662;29;20428;-77
2020/12/02 14:57:00;;;;;;;43.40;20.33;;;3.10;94.30;;;;;;4935922;29;20246;-77
2020/12/02 15:00:07;;;;;;;46.57;19.23;;;3.00;94.70;;;;;;4940635;29;20246;-80
2020/12/02 15:02:33;;;;;;;43.13;20.03;;;2.80;95.00;;;;;;4937008;29;20991;-81
2020/12/02 15:05:00;;;;;;;45.93;19.63;;;2.80;95.30;;;;;;4938927;29;20420;-79
2020/12/02 15:07:55;;;;;;;43.30;21.77;;;2.70;95.60;;;;;;4939952;29;20448;-80
2020/12/02 15:10:34;;;;;;;42.07;19.93;;;2.60;95.80;;;;;;4927167;29;20422;-76
2020/12/02 15:13:00;;;;;;;51.83;25.00;;;2.40;96.40;;;;;;4934914;29;20930;-77
2020/12/02 15:15:28;;;;;;;47.73;23.40;;;2.20;96.80;;;;;;4940794;29;20530;-81
2020/12/02 15:17:59;;;;;;;46.37;21.03;;;2.20;97.10;;;;;;4942990;29;20482;-81
2020/12/02 15:20:34;;;;;;;47.50;20.07;;;2.20;97.20;;;;;;4940876;29;20423;-79
2020/12/02 15:23:02;;;;;;;59.67;20.90;;;2.00;97.30;;;;;;4935148;29;20431;-78
2020/12/02 15:25:28;;;;;;;47.73;19.20;;;1.90;97.30;;;;;;4935894;29;20419;-78
2020/12/02 15:27:53;;;;;;;49.47;22.43;;;1.70;97.30;;;;;;4937482;29;20827;-78
2020/12/02 15:30:41;;;;;;;44.37;20.17;;;1.60;97.30;;;;;;4935858;29;20532;-78
2020/12/02 15:33:31;;;;;;;46.60;20.77;;;1.50;97.30;;;;;;4935323;29;20198;-78
2020/12/02 15:36:15;;;;;;;76.77;42.27;;;1.30;97.30;;;;;;4935455;29;20921;-79
2020/12/02 15:39:16;;;;;;;54.90;23.57;;;1.20;97.30;;;;;;4935107;29;20467;-79
2020/12/02 15:41:54;;;;;;;61.30;28.23;;;1.10;97.30;;;;;;4935467;29;20961;-78
2020/12/02 15:44:41;;;;;;;77.90;33.00;;;1.10;97.30;;;;;;4915994;29;20428;-79
2020/12/02 15:47:36;;;;;;;76.77;30.77;;;1.00;97.30;;;;;;4916598;29;20420;-76
2020/12/02 15:50:23;;;;;;;54.57;24.07;;;0.90;97.30;;;;;;4912750;29;20495;-78
2020/12/02 15:53:15;;;;;;;52.33;22.50;;;0.90;97.30;;;;;;4924348;29;20423;-78
2020/12/02 15:56:11;;;;;;;46.47;19.50;;;0.90;97.30;;;;;;4930898;29;20774;-78
2020/12/02 15:58:39;;;;;;;57.97;22.33;;;0.80;97.30;;;;;;4935040;29;21045;-76
2020/12/02 16:01:13;;;;;;;45.43;19.97;;;0.80;97.30;;;;;;4933245;29;20475;-77
2020/12/02 16:03:39;;;;;;;48.10;19.33;;;0.80;97.30;;;;;;4946867;29;20423;-78
2020/12/02 16:06:10;;;;;;;54.43;21.67;;;0.80;97.30;;;;;;4923246;29;21011;-75
2020/12/02 16:08:43;;;;;;;50.53;21.30;;;0.70;97.30;;;;;;4946941;29;20428;-77
2020/12/02 16:11:18;;;;;;;51.23;20.83;;;0.70;97.30;;;;;;4939560;29;20459;-78
2020/12/02 16:13:46;;;;;;;51.30;19.50;;;0.80;97.30;;;;;;4937805;29;20465;-75
2020/12/02 16:16:16;;;;;;;48.47;20.07;;;0.70;97.30;;;;;;4937403;29;20423;-77
2020/12/02 16:18:41;;;;;;;51.37;20.20;;;0.70;97.30;;;;;;4934820;29;20873;-77
2020/12/02 16:21:32;;;;;;;51.87;22.10;;;0.60;97.30;;;;;;4936642;29;20455;-78
2020/12/02 16:24:00;;;;;;;45.27;19.73;;;0.50;97.30;;;;;;4937811;29;20200;-74
2020/12/02 16:26:36;;;;;;;53.60;22.40;;;0.50;97.30;;;;;;4934927;29;20984;-74
2020/12/02 16:29:02;;;;;;;47.97;21.17;;;0.60;97.30;;;;;;4934902;29;20416;-74
2020/12/02 16:31:30;;;;;;;47.70;21.33;;;0.50;97.30;;;;;;4935928;29;20447;-73
2020/12/02 16:33:57;;;;;;;55.23;22.03;;;0.50;97.30;;;;;;4935263;29;20479;-73
2020/12/02 16:36:28;;;;;;;47.43;21.60;;;0.50;97.30;;;;;;4919253;29;20416;-73
2020/12/02 16:39:05;;;;;;;47.67;20.20;;;0.50;97.30;;;;;;4934018;29;20679;-74
2020/12/02 16:41:39;;;;;;;49.50;20.00;;;0.50;97.30;;;;;;4934654;29;20446;-73
2020/12/02 16:44:19;;;;;;;48.47;18.93;;;0.40;97.30;;;;;;4934195;29;20461;-74
2020/12/02 16:47:13;;;;;;;44.20;19.83;;;0.40;97.30;;;;;;4935058;29;20506;-74
2020/12/02 16:50:01;;;;;;;46.50;20.67;;;0.30;97.30;;;;;;4927995;29;20798;-74
2020/12/02 16:52:30;;;;;;;50.50;20.63;;;0.20;97.30;;;;;;4950598;29;20531;-74
2020/12/02 16:54:59;;;;;;;50.13;22.80;;;0.20;97.30;;;;;;4934561;29;20760;-74
2020/12/02 16:57:27;;;;;;;43.67;20.10;;;0.30;97.30;;;;;;4936064;29;20439;-74
2020/12/02 17:00:13;;;;;;;46.17;18.77;;;0.30;97.30;;;;;;4934653;29;20506;-74
2020/12/02 17:02:45;;;;;;;41.33;18.57;;;0.30;97.30;;;;;;4934145;29;20542;-74
2020/12/02 17:05:25;;;;;;;51.10;23.23;;;0.30;97.30;;;;;;4934723;29;20977;-74
2020/12/02 17:07:52;;;;;;;48.77;20.10;;;0.30;97.30;;;;;;4936245;29;20410;-74
2020/12/02 17:10:21;;;;;;;60.00;22.37;;;0.20;97.30;;;;;;4934174;29;20422;-74
2020/12/02 17:12:53;;;;;;;56.97;22.50;;;0.20;97.30;;;;;;4935810;29;20911;-74
2020/12/02 17:15:29;;;;;;;51.23;21.53;;;0.00;97.30;;;;;;4934626;29;21012;-75
2020/12/02 17:18:04;;;;;;;53.40;21.63;;;0.00;97.30;;;;;;4934902;29;20451;-75
2020/12/02 17:20:44;;;;;;;43.20;20.57;;;0.00;97.30;;;;;;4934537;29;20502;-75
2020/12/02 17:23:26;;;;;;;56.17;25.90;;;0.00;97.30;;;;;;4936287;29;20424;-75
2020/12/02 17:26:03;;;;;;;70.80;27.17;;;0.00;97.30;;;;;;4935176;29;20412;-75
2020/12/02 17:28:32;;;;;;;76.63;30.90;;;0.00;97.30;;;;;;4937280;29;20478;-73
2020/12/02 17:31:04;;;;;;;127.10;44.17;;;-0.10;97.30;;;;;;4936218;29;20439;-74
2020/12/02 17:33:39;;;;;;;81.73;33.87;;;-0.10;97.30;;;;;;4935909;29;20438;-74
2020/12/02 17:36:14;;;;;;;96.00;32.97;;;-0.20;97.30;;;;;;4937626;29;20419;-74
2020/12/02 17:38:40;;;;;;;66.00;26.40;;;-0.20;97.30;;;;;;4937606;29;20451;-74
2020/12/02 17:41:22;;;;;;;65.90;27.40;;;-0.20;97.30;;;;;;4938686;29;20444;-75
2020/12/02 17:44:09;;;;;;;58.33;22.47;;;-0.20;97.30;;;;;;4940296;29;20555;-75
2020/12/02 17:46:42;;;;;;;60.00;23.90;;;-0.20;97.30;;;;;;4939379;29;20498;-74
2020/12/02 17:49:38;;;;;;;84.23;49.30;;;-0.30;97.30;;;;;;4938363;29;20443;-74
2020/12/02 17:52:11;;;;;;;51.30;23.23;;;-0.40;97.30;;;;;;4917298;29;20441;-76
2020/12/02 17:54:39;;;;;;;56.30;22.30;;;-0.40;97.30;;;;;;4916653;29;20886;-76
2020/12/02 17:57:21;;;;;;;54.20;20.73;;;-0.40;97.30;;;;;;4915454;29;20925;-76
2020/12/02 17:59:47;;;;;;;52.33;21.03;;;-0.50;97.30;;;;;;4933044;29;20427;-75
2020/12/02 18:02:21;;;;;;;47.50;20.90;;;-0.50;97.30;;;;;;4937018;29;20463;-76
2020/12/02 18:04:56;;;;;;;46.40;20.37;;;-0.60;97.30;;;;;;4938935;29;20694;-76
2020/12/02 18:07:51;;;;;;;51.27;21.53;;;-0.60;97.30;;;;;;4937924;29;20412;-75
2020/12/02 18:10:42;;;;;;;55.67;21.90;;;-0.60;97.30;;;;;;4934888;29;20419;-76
2020/12/02 18:13:18;;;;;;;52.10;21.13;;;-0.70;97.30;;;;;;4938244;29;20416;-76
2020/12/02 18:16:05;;;;;;;64.33;24.13;;;-0.70;97.30;;;;;;4939180;29;20411;-75
2020/12/02 18:18:46;;;;;;;50.20;21.23;;;-0.70;97.30;;;;;;4938095;29;20829;-75
2020/12/02 18:21:32;;;;;;;49.33;21.73;;;-0.80;97.30;;;;;;4944918;28;20811;-75
2020/12/02 18:24:24;;;;;;;54.53;21.87;;;-0.70;97.30;;;;;;4957188;29;20426;-75
2020/12/02 18:27:14;;;;;;;65.70;24.80;;;-0.70;97.30;;;;;;4919140;29;20423;-74
2020/12/02 18:30:20;;;;;;;55.10;22.93;;;-0.80;97.30;;;;;;4920410;29;20419;-75
2020/12/02 18:33:17;;;;;;;49.17;22.27;;;-0.80;97.30;;;;;;4919042;29;20507;-75
2020/12/02 18:36:16;;;;;;;62.07;23.77;;;-0.90;97.30;;;;;;4912401;29;20940;-75
2020/12/02 18:39:31;;;;;;;56.73;23.20;;;-0.90;97.30;;;;;;4953486;29;20972;-75
2020/12/02 18:42:56;;;;;;;53.63;22.80;;;-1.00;97.30;;;;;;4913752;29;20547;-75
2020/12/02 18:45:25;;;;;;;62.53;24.80;;;-1.00;97.30;;;;;;4855877;29;20431;-75
2020/12/02 18:47:54;;;;;;;64.40;24.90;;;-1.10;97.30;;;;;;4930969;28;20412;-75
2020/12/02 18:50:20;;;;;;;57.30;24.10;;;-1.00;97.30;;;;;;4949387;29;20427;-75
2020/12/02 18:52:47;;;;;;;60.37;22.97;;;-1.00;97.30;;;;;;4936987;29;20431;-76
2020/12/02 18:55:14;;;;;;;62.40;23.90;;;-1.10;97.30;;;;;;4936867;29;20419;-76
2020/12/02 18:58:02;;;;;;;55.73;22.17;;;-1.10;97.30;;;;;;4949902;29;20458;-75
2020/12/02 19:00:29;;;;;;;53.77;21.90;;;-1.20;97.30;;;;;;4939187;29;20427;-76
2020/12/02 19:02:56;;;;;;;58.70;22.23;;;-1.10;97.30;;;;;;4936755;29;20795;-76
2020/12/02 19:05:27;;;;;;;66.93;24.53;;;-1.10;97.30;;;;;;4937714;29;20527;-75
2020/12/02 19:07:55;;;;;;;61.30;23.33;;;-1.10;97.30;;;;;;4955249;29;20971;-75
2020/12/02 19:10:21;;;;;;;54.00;20.67;;;-1.20;97.30;;;;;;4949718;29;20858;-75
2020/12/02 19:12:56;;;;;;;54.00;22.30;;;-1.30;97.30;;;;;;4936389;29;20415;-76
2020/12/02 19:15:40;;;;;;;58.50;23.50;;;-1.40;97.30;;;;;;4936031;29;20428;-76
2020/12/02 19:18:20;;;;;;;64.10;23.83;;;-1.50;97.30;;;;;;4937353;29;20459;-75
2020/12/02 19:21:04;;;;;;;58.80;23.90;;;-1.60;97.30;;;;;;4938092;29;20801;-74